Latest Weather Observations for Charleville

IDQ60801

Issued at 11:35 am EST Friday 19 September 2014 (issued every 30 minutes, with the page automatically refreshed every 10 minutes)

About weather observations | Map of weather stations | Latest weather observations for QLD | Other Formats
Station Details ID: 044021 Name: CHARLEVILLE AERO Lat: -26.41 Lon: 146.26 Height: 301.6 m
Data from the previous 72 hours. | See also: Recent months at Charleville
Date/Time
EST
Temp
°C
App
Temp
°C
Dew
Point
Rel
Hum
%
Delta-T
°C
Wind Press
QNH
hPa
Press
MSL
hPa
Rain
since 9 am
mm
Dir
 
Spd
km/h
Gust
km/h
Spd
kts
Gust
kts
19/11:30am 23.9 19.4 -6.7 12 12.4 W 9 15 5 8 1019.7 - 0.0
19/11:00am 23.5 19.1 -2.7 17 11.5 NNW 11 17 6 9 1020.1 - 0.0
19/10:30am 22.7 18.3 -6.1 14 11.7 NE 9 17 5 9 1020.5 - 0.0
19/10:00am 22.2 18.2 -6.1 14 11.5 E 7 13 4 7 1020.8 - 0.0
19/09:30am 21.2 16.4 -6.0 15 11.0 E 11 15 6 8 1021.1 - 0.0
19/09:00am 19.5 14.0 -5.7 17 10.0 ENE 15 19 8 10 1021.2 1020.8 0.0
19/08:30am 18.1 12.5 -6.4 18 9.5 E 15 24 8 13 1021.3 - 0.0
19/08:00am 16.5 12.4 -2.7 26 7.9 E 9 17 5 9 1021.3 - 0.0
19/07:30am 11.9 9.6 0.4 45 4.8 E 2 6 1 3 1020.9 - 0.0
19/07:00am 8.0 6.2 1.4 63 2.7 CALM 0 0 0 0 1020.5 - 0.0
19/06:30am 6.5 4.6 0.5 65 2.4 CALM 0 0 0 0 1020.1 - 0.0
19/06:00am 5.8 3.8 0.1 67 2.2 NE 0 0 0 0 1019.9 1019.4 0.0
19/05:30am 5.8 3.9 0.6 69 2.1 CALM 0 0 0 0 1019.8 - 0.0
19/05:00am 6.0 4.0 0.1 66 2.3 CALM 0 0 0 0 1019.7 - 0.0
19/04:30am 6.2 4.2 0.0 64 2.4 CALM 0 0 0 0 1020.0 - 0.0
19/04:00am 6.9 4.9 0.2 62 2.7 CALM 0 0 0 0 1019.8 - 0.0
19/03:30am 7.2 5.2 0.1 60 2.8 CALM 0 0 0 0 1019.9 - 0.0
19/03:00am 7.9 5.9 0.1 58 3.1 CALM 0 2 0 1 1019.7 1019.2 0.0
19/02:30am 8.2 5.8 -0.2 55 3.4 E 2 6 1 3 1020.0 - 0.0
19/02:00am 8.8 5.6 -0.2 53 3.6 SSE 6 9 3 5 1020.2 - 0.0
19/01:30am 8.8 5.5 0.0 54 3.6 SSE 7 7 4 4 1020.2 - 0.0
19/01:00am 9.4 7.4 0.1 52 3.8 CALM 0 0 0 0 1020.4 - 0.0
19/12:30am 10.3 8.3 -0.3 48 4.3 CALM 0 4 0 2 1020.3 - 0.0
19/12:00am 11.1 7.8 -0.2 45 4.6 SSE 7 9 4 5 1020.6 1020.1 0.0
 
Date/Time
EST
Temp
°C
App
Temp
°C
Dew
Point
Rel
Hum
%
Delta-T
°C
Wind Press
QNH
hPa
Press
MSL
hPa
Rain
since 9 am
mm
Dir
 
Spd
km/h
Gust
km/h
Spd
kts
Gust
kts
18/11:30pm 12.7 9.5 -0.4 40 5.5 S 6 9 3 5 1020.8 - 0.0
18/11:00pm 13.5 10.1 -0.8 37 6.0 SSE 7 9 4 5 1020.8 - 0.0
18/10:30pm 13.8 10.3 -1.3 35 6.2 S 7 9 4 5 1020.9 - 0.0
18/10:00pm 13.3 10.1 0.7 42 5.4 S 7 9 4 5 1020.8 - 0.0
18/09:30pm 14.5 11.2 0.0 37 6.2 S 7 9 4 5 1020.7 - 0.0
18/09:00pm 15.7 12.2 -1.0 32 7.0 SSE 7 9 4 5 1020.7 1020.3 0.0
18/08:30pm 16.7 12.4 -2.0 28 7.8 S 11 13 6 7 1020.5 - 0.0
18/08:00pm 17.3 13.3 -2.1 26 8.1 SSE 9 9 5 5 1020.3 - 0.0
18/07:30pm 17.6 13.7 -1.4 27 8.1 S 9 13 5 7 1019.9 - 0.0
18/07:00pm 18.2 14.1 -0.4 28 8.2 S 11 11 6 6 1019.6 - 0.0
18/06:30pm 19.6 15.7 -1.4 24 9.1 S 9 11 5 6 1019.2 - 0.0
18/06:00pm 22.0 17.5 -2.9 18 10.7 SSE 11 15 6 8 1019.0 1018.5 0.0
18/05:30pm 23.0 18.4 -3.8 16 11.5 SSE 11 19 6 10 1018.7 - 0.0
18/05:00pm 23.3 19.0 -5.0 15 11.9 ESE 9 13 5 7 1018.4 - 0.0
18/04:30pm 23.7 18.2 -5.0 14 12.1 S 15 20 8 11 1018.3 - 0.0
18/04:00pm 23.5 19.3 -4.2 15 11.8 SE 9 13 5 7 1018.0 - 0.0
18/03:30pm 24.0 19.8 -4.2 15 12.1 SSE 9 19 5 10 1018.4 - 0.0
18/03:00pm 23.4 18.0 -4.7 15 11.8 SSE 15 26 8 14 1018.5 1018.0 0.0
18/02:30pm 23.1 18.5 -3.8 16 11.5 ESE 11 19 6 10 1018.7 - 0.0
18/02:00pm 23.2 19.1 -2.7 17 11.3 ENE 9 17 5 9 1019.0 - 0.0
18/01:30pm 23.3 19.3 -1.9 18 11.2 N 9 15 5 8 1019.4 - 0.0
18/01:00pm 22.5 16.9 -2.8 18 11.0 SE 17 20 9 11 1020.0 - 0.0
18/12:30pm 22.6 18.3 -1.9 19 10.8 SSE 11 17 6 9 1020.5 - 0.0
18/12:00pm 21.4 17.6 -0.4 23 9.8 E 9 26 5 14 1021.0 1020.6 0.0
18/11:30am 20.9 17.1 -0.9 23 9.7 SSE 9 22 5 12 1021.7 - 0.0
18/11:00am 20.5 16.0 -0.5 24 9.4 ENE 13 22 7 12 1022.1 - 0.0
18/10:30am 20.4 14.5 -0.8 24 9.4 ESE 20 30 11 16 1022.5 - 0.0
18/10:00am 19.4 13.7 -0.5 26 8.8 ESE 19 30 10 16 1022.8 - 0.0
18/09:30am 18.5 11.8 -1.0 26 8.5 ESE 24 32 13 17 1023.2 - 0.0
18/09:00am 17.8 11.2 -0.4 29 7.9 ESE 24 30 13 16 1023.3 1022.8 0.0
18/08:30am 16.8 11.2 0.9 34 7.1 SE 20 28 11 15 1023.3 - 0.0
18/08:00am 15.0 10.0 1.6 40 6.0 SE 17 22 9 12 1023.3 - 0.0
18/07:30am 12.8 9.4 1.9 47 4.8 S 9 13 5 7 1023.1 - 0.0
18/07:00am 9.1 7.6 3.2 66 2.6 CALM 0 0 0 0 1022.7 - 0.0
18/06:30am 7.4 5.7 2.1 69 2.2 CALM 0 0 0 0 1022.3 - 0.0
18/06:00am 7.5 5.9 2.3 69 2.2 CALM 0 0 0 0 1022.0 1021.5 0.0
18/05:30am 8.1 5.3 2.3 67 2.5 SSE 6 7 3 4 1021.7 - 0.0
18/05:00am 9.1 6.4 2.7 64 2.8 SSE 6 7 3 4 1021.4 - 0.0
18/04:30am 9.9 6.9 2.1 58 3.3 S 7 7 4 4 1021.0 - 0.0
18/04:00am 10.9 7.5 1.7 53 4.0 S 9 13 5 7 1020.6 - 0.0
18/03:30am 11.6 7.7 1.2 49 4.4 S 11 13 6 7 1020.4 - 0.0
18/03:00am 12.1 7.8 1.0 46 4.7 S 13 17 7 9 1020.2 1019.7 0.0
18/02:30am 12.2 8.3 1.2 47 4.7 S 11 13 6 7 1020.1 - 0.0
18/02:00am 11.2 7.7 1.4 51 4.2 S 9 13 5 7 1019.9 - 0.0
18/01:30am 10.9 7.5 2.0 54 3.8 SSW 9 13 5 7 1019.8 - 0.0
18/01:00am 10.6 7.8 2.2 56 3.6 SE 6 7 3 4 1019.4 - 0.0
18/12:30am 11.0 8.1 2.6 56 3.7 SSE 7 9 4 5 1019.6 - 0.0
18/12:00am 11.7 10.1 2.4 53 4.1 CALM 0 0 0 0 1019.6 1019.1 0.0
 
Date/Time
EST
Temp
°C
App
Temp
°C
Dew
Point
Rel
Hum
%
Delta-T
°C
Wind Press
QNH
hPa
Press
MSL
hPa
Rain
since 9 am
mm
Dir
 
Spd
km/h
Gust
km/h
Spd
kts
Gust
kts
17/11:30pm 12.1 9.1 2.2 50 4.3 SSE 7 7 4 4 1019.6 - 0.0
17/11:00pm 12.6 9.6 1.9 48 4.7 S 7 9 4 5 1019.4 - 0.0
17/10:30pm 13.7 10.6 1.5 43 5.4 SSE 7 9 4 5 1019.3 - 0.0
17/10:00pm 15.4 12.5 2.4 41 5.9 S 7 7 4 4 1019.2 - 0.0
17/09:30pm 16.3 12.8 1.4 36 6.7 S 9 11 5 6 1018.9 - 0.0
17/09:00pm 17.0 13.0 0.8 33 7.2 S 11 13 6 7 1018.8 1018.3 0.0
17/08:30pm 17.2 13.4 1.8 35 7.0 SSW 11 13 6 7 1018.5 - 0.0
17/08:00pm 18.4 14.8 0.8 30 7.9 SSW 9 13 5 7 1018.2 - 0.0
17/07:30pm 19.0 15.3 0.0 28 8.5 S 9 11 5 6 1017.7 - 0.0
17/07:00pm 20.2 16.1 -0.2 25 9.1 S 11 15 6 8 1017.4 - 0.0
17/06:30pm 21.6 16.5 -2.1 20 10.3 S 15 22 8 12 1016.9 - 0.0
17/06:00pm 22.4 16.8 -3.3 17 11.0 S 17 22 9 12 1016.4 1015.9 0.0
17/05:30pm 23.2 17.1 -4.3 15 11.7 SSW 19 32 10 17 1016.2 - 0.0
17/05:00pm 23.9 18.2 -3.8 15 11.9 SW 17 24 9 13 1015.9 - 0.0
17/04:30pm 24.7 17.6 -4.2 14 12.5 WSW 24 28 13 15 1015.7 - 0.0
17/04:00pm 24.9 19.3 -2.6 16 12.2 SSW 17 28 9 15 1015.4 - 0.0
17/03:30pm 25.0 19.9 -2.2 16 12.2 SW 15 28 8 15 1015.6 - 0.0
17/03:00pm 25.1 20.2 -3.0 15 12.4 SW 13 24 7 13 1015.7 1015.2 0.0
17/02:30pm 24.4 17.1 -3.2 16 12.1 WSW 26 32 14 17 1016.0 - 0.0
17/02:00pm 24.5 18.4 -2.6 16 12.0 SSW 20 33 11 18 1016.1 - 0.0
17/01:30pm 24.4 18.9 -2.1 17 11.8 W 17 26 9 14 1016.4 - 0.0
17/01:00pm 23.5 17.8 -1.1 19 11.1 WNW 19 22 10 12 1016.8 - 0.0
17/12:30pm 23.6 17.7 -0.8 20 11.1 SW 20 28 11 15 1017.2 - 0.0
17/12:00pm 23.2 19.0 -1.0 20 10.9 W 11 22 6 12 1017.6 1017.1 0.0
17/11:30am 22.5 18.7 -0.5 21 10.4 WSW 9 17 5 9 1017.8 - 0.0
17/11:00am 21.7 17.2 -0.3 23 10.0 WSW 13 17 7 9 1018.5 - 0.0
17/10:30am 21.3 17.2 0.0 24 9.7 SW 11 19 6 10 1018.8 - 0.0
17/10:00am 20.6 16.7 1.2 27 9.0 S 11 17 6 9 1019.0 - 0.0
17/09:30am 20.0 15.9 2.5 31 8.3 SE 13 19 7 10 1019.5 - 0.0
17/09:00am 19.1 14.3 2.6 33 7.7 SE 17 24 9 13 1019.3 1018.8 0.0
17/08:30am 17.7 12.9 2.6 36 7.0 SE 17 22 9 12 1019.5 - 0.0
17/08:00am 16.0 12.3 2.3 39 6.2 SSE 11 15 6 8 1019.2 - 0.0
17/07:30am 12.9 11.6 4.3 56 4.0 CALM 0 0 0 0 1019.3 - 0.0
17/07:00am 9.5 8.1 3.5 66 2.7 CALM 0 0 0 0 1018.9 - 0.0
17/06:30am 7.3 5.8 2.8 73 1.9 CALM 0 0 0 0 1018.6 - 0.0
17/06:00am 6.8 5.3 2.8 75 1.7 CALM 0 0 0 0 1018.3 1017.8 0.0
17/05:30am 7.5 6.0 2.8 72 2.0 CALM 0 0 0 0 1017.9 - 0.0
17/05:00am 7.6 6.1 2.9 72 2.0 CALM 0 0 0 0 1017.6 - 0.0
17/04:30am 7.8 6.2 2.4 68 2.3 CALM 0 0 0 0 1017.2 - 0.0
17/04:00am 8.2 6.6 2.4 67 2.5 CALM 0 0 0 0 1016.8 - 0.0
17/03:30am 8.4 6.8 2.3 65 2.6 CALM 0 0 0 0 1016.7 - 0.0
17/03:00am 8.8 7.2 2.4 64 2.7 CALM 0 0 0 0 1016.5 1016.0 0.0
17/02:30am 9.3 7.7 2.2 61 3.0 CALM 0 0 0 0 1016.6 - 0.0
17/02:00am 10.0 8.3 2.0 57 3.4 CALM 0 0 0 0 1016.7 - 0.0
17/01:30am 10.7 9.0 2.1 55 3.7 CALM 0 0 0 0 1016.7 - 0.0
17/01:00am 11.5 8.7 2.1 52 4.1 N 6 7 3 4 1016.7 - 0.0
17/12:30am 12.3 10.8 2.8 52 4.2 CALM 0 0 0 0 1016.6 - 0.0
17/12:00am 13.0 9.6 1.8 46 4.9 SSW 9 11 5 6 1016.4 1015.9 0.0
 
Date/Time
EST
Temp
°C
App
Temp
°C
Dew
Point
Rel
Hum
%
Delta-T
°C
Wind Press
QNH
hPa
Press
MSL
hPa
Rain
since 9 am
mm
Dir
 
Spd
km/h
Gust
km/h
Spd
kts
Gust
kts
16/11:30pm 13.0 9.8 0.9 43 5.2 S 7 9 4 5 1016.3 - 0.0
16/11:00pm 13.3 9.8 1.2 43 5.3 S 9 9 5 5 1016.3 - 0.0
16/10:30pm 14.1 11.0 1.6 42 5.5 S 7 9 4 5 1016.1 - 0.0
16/10:00pm 15.1 12.1 2.0 41 5.9 SSE 7 9 4 5 1016.0 - 0.0
16/09:30pm 17.1 14.0 1.4 34 7.1 S 7 9 4 5 1015.8 - 0.0
16/09:00pm 18.4 14.5 1.4 32 7.7 S 11 13 6 7 1015.6 1015.1 0.0
16/08:30pm 19.5 15.0 -0.4 26 8.8 S 13 15 7 8 1015.2 - 0.0
16/08:00pm 19.8 15.8 0.7 28 8.7 S 11 13 6 7 1015.0 - 0.0
16/07:30pm 19.0 16.0 1.9 32 7.9 SSW 7 9 4 5 1014.7 - 0.0
16/07:00pm 20.6 17.7 2.6 30 8.5 SSW 7 9 4 5 1014.3 - 0.0
16/06:30pm 23.5 19.9 0.7 22 10.7 SW 9 13 5 7 1014.0 - 0.0
16/06:00pm 25.1 20.5 -0.7 18 11.9 SSW 13 19 7 10 1013.7 1013.2 0.0
16/05:30pm 26.2 20.8 -1.5 16 12.7 SSW 17 24 9 13 1013.6 - 0.0
16/05:00pm 27.1 21.8 -0.6 16 13.0 SSW 17 22 9 12 1013.2 - 0.0
16/04:30pm 27.4 23.1 0.7 17 12.9 SW 13 22 7 12 1013.0 - 0.0
16/04:00pm 27.4 22.1 2.9 20 12.3 SSW 20 30 11 16 1012.9 - 0.0
16/03:30pm 27.7 22.1 1.1 18 12.9 SW 20 30 11 16 1012.8 - 0.0
16/03:00pm 27.8 23.0 2.8 20 12.5 SW 17 28 9 15 1013.1 1012.6 0.0
16/02:30pm 27.5 21.8 2.7 20 12.4 SW 22 33 12 18 1013.4 - 0.0
16/02:00pm 27.7 23.4 3.1 20 12.4 SW 15 32 8 17 1013.6 - 0.0
16/01:30pm 26.7 21.6 3.1 21 11.8 WSW 19 28 10 15 1014.2 - 0.0
16/01:00pm 26.9 21.5 2.7 21 12.0 WSW 20 30 11 16 1014.5 - 0.0
16/12:30pm 26.7 21.6 2.9 21 11.9 WSW 19 30 10 16 1015.1 - 0.0
16/12:00pm 26.3 21.0 2.9 22 11.6 W 20 32 11 17 1015.6 1015.1 0.0

Other Formats:

Comma delimited format used in spreadsheet applications
http://www.bom.gov.au/fwo/IDQ60801/IDQ60801.94510.axf

JavaScript Object Notation format (JSON) in row-major order
http://www.bom.gov.au/fwo/IDQ60801/IDQ60801.94510.json